• Join FlightAware (Why Join?)
  • Login
  • US Flag 
10:19AM EDT


 

Airport Tracker/Info


-or-


 

Live Flight TrackerFlight Track Log ✈ RPA3161 ✈ 13-Jun-2013 ✈ KBTV - KDCA

Flight Track Log - Related Links

Times and Time Zones

All times are in EDT time to prevent confusion due to time zone crossing. See the RPA3161 flight status page for this flight to view local times or setup timezone preferences in your user account.

Time Position Orientation Groundspeed Altitude Reporting Facility
EDT Latitude Longitude Course Direction KTS MPH feet Rate Location/Type
12:40PM 44.1690 -73.2616 195° South  Level FlightAware Approximate
12:41PM 44.0692 -73.2990 195° South  Level FlightAware Approximate
12:41PM 44.2444 -73.1792 198° South 290 334 8,700  Level Boston Center
12:42PM 43.9688 -73.3327 194° South  Level FlightAware Approximate
12:42PM 44.1650 -73.2011 191° South 290 334 10,700  Level Boston Center
12:43PM 43.8687 -73.3681 195° South  Level FlightAware Approximate
12:43PM 44.0797 -73.1972 178° South 323 372 12,900  Level Boston Center
12:44PM 43.7689 -73.4055 195° South  Level FlightAware Approximate
12:44PM 43.9903 -73.1586 163° South 335 386 15,800  Level Boston Center
12:45PM 43.6692 -73.4428 195° South  Level FlightAware Approximate
12:45PM 43.8967 -73.1172 162° South 345 397 18,600  Level Boston Center
12:46PM 43.5708 -73.4861 198° South  Level FlightAware Approximate
12:46PM 43.8031 -73.0872 167° South 345 397 20,500  Level Boston Center
12:47PM 43.7050 -73.1092 189° South 350 403 22,400 2,100 Climbing Boston Center
12:48PM 43.5925 -73.1308 188° South 361 415 24,700 2,100 Climbing Boston Center
12:49PM 43.4903 -73.1497 188° South 372 428 26,600 1,440 Climbing Boston Center
12:50PM 43.4089 -73.1658 188° South 372 428 27,600 1,020 Climbing Boston Center
12:51PM 43.2942 -73.1931 190° South 377 434 28,700 1,020 Climbing Boston Center
12:52PM 43.1875 -73.2147 188° South 384 442 29,700 600 Climbing Boston Center
12:53PM 43.0750 -73.2358 188° South 397 457 30,000 120 Climbing Boston Center
12:54PM 42.9872 -73.2547 189° South 397 457 30,000  Level Boston Center
12:55PM 42.8558 -73.2783 188° South 402 463 30,000  Level Boston Center
12:56PM 42.7453 -73.3053 190° South 407 468 30,000  Level Boston Center
12:57PM 42.6367 -73.3233 187° South 407 468 30,000  Level Boston Center
12:58PM 42.5281 -73.3331 184° South 407 468 30,000  Level Boston Center
12:59PM 42.4069 -73.3708 193° South 412 474 30,000  Level Boston Center
01:00PM 42.3133 -73.3722 181° South 405 466 30,000  Level Boston Center
01:01PM 42.2025 -73.4042 192° South 400 460 30,000  Level Boston Center
01:02PM 42.0919 -73.4250 188° South 400 460 30,000  Level Boston Center
01:03PM 41.9436 -73.4589 190° South 420 483 30,000  Level Boston Center
01:04PM 41.8328 -73.4794 188° South 414 476 30,000  Level Boston Center
01:06PM 41.6275 -73.5158 188° South 397 457 30,000  Level New York Center
01:07PM 41.5208 -73.5364 188° South 392 451 30,000  Level New York Center
01:08PM 41.4078 -73.5567 188° South 398 458 30,000  Level New York Center
01:09PM 41.2989 -73.5881 192° South 404 465 30,000  Level New York Center
01:10PM 41.2236 -73.6842 224° Southwest 371 427 30,000  Level New York Center
01:11PM 41.1583 -73.7914 231° Southwest 371 427 30,000  Level New York Center
01:12PM 41.0931 -73.9042 232° Southwest 382 440 30,000  Level New York Center
01:13PM 41.0253 -74.0167 231° Southwest 389 448 30,000  Level New York Center
01:14PM 40.9597 -74.1289 232° Southwest 394 453 30,000  Level New York Center
01:15PM 40.8900 -74.2353 229° Southwest 394 453 30,000 -720 Level New York Center
01:16PM 40.8219 -74.3469 231° Southwest 394 453 28,600 -1,020 Descending New York Center
01:17PM 40.7564 -74.4531 231° Southwest 389 448 28,000 -300 Descending New York Center
01:18PM 40.6947 -74.5592 233° Southwest 384 442 28,000  Level New York Center
01:19PM 40.6308 -74.6650 232° Southwest 384 442 28,000  Level New York Center
01:20PM 40.5669 -74.7653 230° Southwest 379 436 28,000  Level New York Center
01:21PM 40.4947 -74.8647 226° Southwest 379 436 28,000  Level New York Center
01:22PM 40.4267 -74.9669 229° Southwest 374 430 28,000  Level New York Center
01:23PM 40.3564 -75.0633 226° Southwest 374 430 28,000 -60 Level New York Center
01:24PM 40.2861 -75.1597 226° Southwest 374 430 27,900 -1,020 Descending New York Center
01:25PM 40.2200 -75.2589 229° Southwest 374 430 26,100 -1,860 Descending New York Center
01:26PM 40.1517 -75.3522 226° Southwest 369 425 24,200 -1,860 Descending New York Center
01:27PM 40.0878 -75.4403 227° Southwest 358 412 22,400 -1,140 Descending New York Center
01:28PM 40.0258 -75.5283 227° Southwest 347 399 22,000 -240 Descending New York Center
01:29PM 39.9597 -75.6186 226° Southwest 347 399 22,000  Level New York Center
01:30PM 39.8950 -75.7197 230° Southwest 352 405 22,000  Level New York Center
01:31PM 39.8303 -75.8231 231° Southwest 363 418 22,000 -660 Level New York Center
01:32PM 39.7672 -75.9294 232° Southwest 370 426 20,700 -1,680 Descending New York Center
01:33PM 39.7094 -76.0117 228° Southwest 364 419 18,800 -1,980 Descending New York Center
01:34PM 39.6489 -76.1069 230° Southwest 357 411 16,800 -1,860 Descending New York Center
01:36PM 39.5167 -76.3167 231° Southwest 306 352 12,800 -1,080 Descending Potomac TRACON
01:38PM 39.4256 -76.4244 218° Southwest  Level FlightAware Approximate
01:39PM 39.3167 -76.5333 180° South 307 353 11,300  Level Potomac TRACON
01:40PM 39.2667 -76.5833 218° Southwest 269 310 10,300 -660 Descending Potomac TRACON
01:41PM 39.2000 -76.6333 210° Southwest 259 298 10,000 -180 Descending Potomac TRACON
01:42PM 39.1500 -76.7000 226° Southwest 254 292 10,000 -600 Level Potomac TRACON
01:44PM 39.0495 -76.7799 224° Southwest  Level FlightAware Approximate
01:44PM 39.0833 -76.8500 224° Southwest 247 284 8,300  Level Potomac TRACON
01:45PM 38.8699 -76.9333 180° South  Level FlightAware Approximate
01:45PM 39.0667 -76.9333 256° West 244 281 7,900  Level Potomac TRACON
01:46PM 39.0500 -77.0167 256° West 227 261 6,100 -1,800 Descending Potomac TRACON
01:47PM 39.0167 -77.0833 237° Southwest 206 237 4,300 -1,680 Descending Potomac TRACON
01:48PM 38.9667 -77.1167 207° Southwest 202 232 2,800 -1,380 Descending Potomac TRACON